Terminal Aerodrome Forecast
Issued by NWS Portland, OR

Home | Current Version | Previous Version | Text Only | Print | Product List | Glossary On
Versions: 1 2 3 4 5 6 7 8 9 10 11 12 13 14 15 16 17 18 19 20 21 22 23 24 25 26 27 28 29 30 31 32 33 34 35 36 37 38 39 40 41 42 43 44 45 46 47 48 49 50
398
FTUS46 KPQR 230533
TAFPDX
TAF
KPDX 230533Z 2306/2406 29004KT P6SM SCT035 BKN045
     FM230800 00000KT 5SM BR SCT002 SCT045
      TEMPO 2308/2310 1/2SM FG
     FM231000 00000KT 1/4SM FG VV002
     FM231800 VRB02KT 3SM BR BKN005
     FM232000 30005KT P6SM VCSH SCT020 SCT040=

USA.gov is the U.S. government's official web portal to all federal, state and local government web resources and services.